createdAt,value
2022-12-08T00:01:09.824Z,77.90
2022-12-08T00:03:37.512Z,78.10
2022-12-08T00:06:24.991Z,78.30
2022-12-08T00:09:11.032Z,78.40
2022-12-08T00:11:39.450Z,78.40
2022-12-08T00:14:06.552Z,78.80
2022-12-08T00:16:33.671Z,78.50
2022-12-08T00:19:00.739Z,78.50
2022-12-08T00:21:29.057Z,78.70
2022-12-08T00:23:56.539Z,78.30
2022-12-08T00:26:23.844Z,78.70
2022-12-08T00:28:50.902Z,78.80
2022-12-08T00:31:18.036Z,78.70
2022-12-08T00:33:45.167Z,78.50
2022-12-08T00:36:14.254Z,78.40
2022-12-08T00:38:41.802Z,78.60
2022-12-08T00:41:18.606Z,79.20
2022-12-08T00:43:45.664Z,78.60
2022-12-08T00:46:12.808Z,78.70
2022-12-08T00:48:39.963Z,78.60
2022-12-08T00:51:07.094Z,78.60
2022-12-08T00:53:34.151Z,78.70
2022-12-08T00:56:01.204Z,78.50
2022-12-08T00:58:29.235Z,78.60
2022-12-08T01:00:56.455Z,78.50
2022-12-08T01:03:23.683Z,78.60
2022-12-08T01:05:50.728Z,78.60
2022-12-08T01:08:17.827Z,78.80
2022-12-08T01:10:44.924Z,79.60
2022-12-08T01:13:11.963Z,79.90
2022-12-08T01:15:39.007Z,79.60
2022-12-08T01:18:06.083Z,79.50
2022-12-08T01:20:33.135Z,79.60
2022-12-08T01:23:00.179Z,79.60
2022-12-08T01:25:27.292Z,79.80
2022-12-08T01:27:54.376Z,79.90
2022-12-08T01:30:22.036Z,79.60
2022-12-08T01:32:49.116Z,79.70
2022-12-08T01:35:16.279Z,79.70
2022-12-08T01:37:43.331Z,79.50
2022-12-08T01:40:10.635Z,79.40
2022-12-08T01:42:38.307Z,79.50
2022-12-08T01:45:13.320Z,79.40
2022-12-08T01:47:44.753Z,79.20
2022-12-08T01:50:14.107Z,79.20
2022-12-08T01:52:46.661Z,79.30
2022-12-08T01:55:19.062Z,79.20
2022-12-08T01:57:51.121Z,79.10
2022-12-08T02:00:20.593Z,79.10
2022-12-08T02:03:03.988Z,78.80
2022-12-08T02:05:36.963Z,78.80
2022-12-08T02:08:07.841Z,78.70
2022-12-08T02:10:38.136Z,78.80
2022-12-08T02:13:08.357Z,78.60
2022-12-08T02:15:50.855Z,78.10
2022-12-08T02:18:32.898Z,77.90
2022-12-08T02:21:28.533Z,77.90
2022-12-08T02:24:21.705Z,78.30
2022-12-08T02:27:08.417Z,78.30
2022-12-08T02:29:54.210Z,78.40
2022-12-08T02:32:44.910Z,78.40
2022-12-08T02:35:20.342Z,78.40
2022-12-08T02:37:54.833Z,78.90
2022-12-08T02:40:31.285Z,78.80
2022-12-08T02:43:08.619Z,78.90
2022-12-08T02:45:48.362Z,78.90
2022-12-08T02:48:15.770Z,78.80
2022-12-08T02:50:43.190Z,78.10
2022-12-08T02:56:00.016Z,78.20
2022-12-08T02:58:56.536Z,78.40
2022-12-08T03:01:51.329Z,78.30
2022-12-08T03:04:56.830Z,78.40
2022-12-08T03:07:46.429Z,78.30
2022-12-08T03:10:52.484Z,78.10
2022-12-08T03:13:34.223Z,78.00
2022-12-08T03:16:04.538Z,78.00
2022-12-08T03:18:34.303Z,78.10
2022-12-08T03:21:02.951Z,78.10
2022-12-08T03:23:30.662Z,78.00
2022-12-08T03:26:08.406Z,78.10
2022-12-08T03:28:35.507Z,77.90
2022-12-08T03:31:07.158Z,78.40
2022-12-08T03:33:38.379Z,79.20
2022-12-08T03:36:09.094Z,79.40
2022-12-08T03:38:43.563Z,79.40
2022-12-08T03:41:20.214Z,79.40
2022-12-08T03:43:52.819Z,79.50
2022-12-08T03:48:48.747Z,79.80
2022-12-08T03:51:15.983Z,79.20
2022-12-08T03:53:44.068Z,79.30
2022-12-08T03:56:20.104Z,79.10
2022-12-08T03:58:47.182Z,79.10
2022-12-08T04:01:14.260Z,79.00
2022-12-08T04:03:41.360Z,78.80
2022-12-08T04:06:08.647Z,78.70
2022-12-08T04:08:35.976Z,78.60
2022-12-08T04:11:03.162Z,78.50
2022-12-08T04:13:30.266Z,78.40
2022-12-08T04:15:57.418Z,78.20
2022-12-08T04:18:24.633Z,78.20
2022-12-08T04:20:51.772Z,78.20
2022-12-08T04:23:19.036Z,78.00
2022-12-08T04:25:46.193Z,77.80
2022-12-08T04:28:13.378Z,77.90
2022-12-08T04:30:40.516Z,78.90
2022-12-08T04:33:07.588Z,78.90
2022-12-08T04:35:34.700Z,78.70
2022-12-08T04:38:01.935Z,78.70
2022-12-08T04:40:29.024Z,78.60
2022-12-08T04:42:56.141Z,78.40
2022-12-08T04:45:23.201Z,78.50
2022-12-08T04:47:50.261Z,78.30
2022-12-08T04:50:17.357Z,78.10
2022-12-08T04:52:44.408Z,78.10
2022-12-08T04:55:11.461Z,77.90
2022-12-08T04:57:38.558Z,77.80
2022-12-08T05:00:06.812Z,77.70
2022-12-08T05:02:34.262Z,77.60
2022-12-08T05:05:01.377Z,77.50
2022-12-08T05:07:28.429Z,77.30
2022-12-08T05:09:55.562Z,77.50
2022-12-08T05:12:22.618Z,77.50
2022-12-08T05:14:49.669Z,77.80
2022-12-08T05:17:18.145Z,78.20
2022-12-08T05:19:45.237Z,78.60
2022-12-08T05:22:12.399Z,77.80
2022-12-08T05:24:45.599Z,77.90
2022-12-08T05:27:14.421Z,78.10
2022-12-08T05:29:41.719Z,78.00
2022-12-08T05:32:08.855Z,78.10
2022-12-08T05:34:35.978Z,78.20
2022-12-08T05:37:03.146Z,78.00
2022-12-08T05:39:30.910Z,78.40
2022-12-08T05:41:57.971Z,78.40
2022-12-08T05:44:25.371Z,78.50
2022-12-08T05:46:52.526Z,78.40
2022-12-08T05:49:19.599Z,78.40
2022-12-08T05:51:46.722Z,78.10
2022-12-08T05:54:14.165Z,78.10
2022-12-08T05:56:41.255Z,78.00
2022-12-08T05:59:08.590Z,78.00
2022-12-08T06:01:35.936Z,77.70
2022-12-08T06:04:04.339Z,77.50
2022-12-08T06:06:34.354Z,77.40
2022-12-08T06:09:03.740Z,78.10
2022-12-08T06:11:32.534Z,77.20
2022-12-08T06:13:59.730Z,77.10
2022-12-08T06:16:28.052Z,78.00
2022-12-08T06:18:58.330Z,77.30
2022-12-08T06:21:25.451Z,77.10
2022-12-08T06:23:54.096Z,77.10
2022-12-08T06:26:21.580Z,77.10
2022-12-08T06:28:49.416Z,78.20
2022-12-08T06:31:22.939Z,78.40
2022-12-08T06:33:50.815Z,78.20
2022-12-08T06:36:20.055Z,78.10
2022-12-08T06:38:47.840Z,77.90
2022-12-08T06:41:15.803Z,77.60
2022-12-08T06:43:42.959Z,78.20
2022-12-08T06:46:13.469Z,78.20
2022-12-08T06:48:40.691Z,78.40
2022-12-08T06:51:13.735Z,78.10
2022-12-08T06:53:41.807Z,78.10
2022-12-08T06:56:10.068Z,78.30
2022-12-08T06:58:37.318Z,78.40
2022-12-08T07:01:07.241Z,78.20
2022-12-08T07:03:35.153Z,78.10
2022-12-08T07:06:04.287Z,78.00
2022-12-08T07:08:33.120Z,77.60
2022-12-08T07:11:05.924Z,77.70
2022-12-08T07:13:32.969Z,77.80
2022-12-08T07:16:00.009Z,77.50
2022-12-08T07:18:27.044Z,77.00
2022-12-08T07:20:54.088Z,76.50
2022-12-08T07:23:21.156Z,76.40
2022-12-08T07:25:48.210Z,76.10
2022-12-08T07:28:15.288Z,76.50
2022-12-08T07:30:42.381Z,76.50
2022-12-08T07:33:09.532Z,76.50
2022-12-08T07:35:36.633Z,76.50
2022-12-08T07:38:03.681Z,76.80
2022-12-08T07:40:30.704Z,76.80
2022-12-08T07:42:57.758Z,76.50
2022-12-08T07:45:31.234Z,76.80
2022-12-08T07:47:59.161Z,76.50
2022-12-08T07:50:26.228Z,76.90
2022-12-08T07:52:53.265Z,77.10
2022-12-08T07:55:20.347Z,77.60
2022-12-08T07:57:47.413Z,76.80
2022-12-08T08:00:15.474Z,76.50
2022-12-08T08:02:43.010Z,75.30
2022-12-08T08:05:12.173Z,72.80
2022-12-08T08:07:42.043Z,72.60
2022-12-08T08:10:10.981Z,72.90
2022-12-08T08:12:38.945Z,72.80
2022-12-08T08:15:08.131Z,72.60
2022-12-08T08:17:38.617Z,72.50
2022-12-08T08:20:07.592Z,72.40
2022-12-08T08:22:36.957Z,72.30
2022-12-08T08:25:04.285Z,72.20
2022-12-08T08:27:31.402Z,72.20
2022-12-08T08:29:58.680Z,72.10
2022-12-08T08:32:25.819Z,72.80
2022-12-08T08:34:52.865Z,72.70
2022-12-08T08:37:19.931Z,72.60
2022-12-08T08:39:47.001Z,72.40
2022-12-08T08:42:14.041Z,72.60
2022-12-08T08:44:41.295Z,72.60
2022-12-08T08:47:08.571Z,72.60
2022-12-08T08:49:35.635Z,72.10
2022-12-08T08:52:03.884Z,72.30
2022-12-08T08:54:31.267Z,72.90
2022-12-08T08:56:59.074Z,73.80
2022-12-08T08:59:27.125Z,73.20
2022-12-08T09:01:55.253Z,74.90
2022-12-08T09:04:23.286Z,70.40
2022-12-08T09:06:50.469Z,70.20
2022-12-08T09:09:18.090Z,71.00
2022-12-08T09:11:45.195Z,71.30
2022-12-08T09:14:14.628Z,70.70
2022-12-08T09:16:42.775Z,70.50
2022-12-08T09:19:10.108Z,71.30
2022-12-08T09:21:37.161Z,71.60
2022-12-08T09:24:04.385Z,73.80
2022-12-08T09:26:31.520Z,73.00
2022-12-08T09:28:59.739Z,71.00
2022-12-08T09:31:26.920Z,70.40
2022-12-08T09:33:54.067Z,67.30
2022-12-08T09:36:21.617Z,68.20
2022-12-08T09:38:50.172Z,69.50
2022-12-08T09:41:26.558Z,69.90
2022-12-08T09:44:01.149Z,70.90
2022-12-08T09:46:32.046Z,70.80
2022-12-08T09:49:02.586Z,71.00
2022-12-08T09:51:38.628Z,72.00
2022-12-08T09:54:34.437Z,72.40
2022-12-08T09:57:07.186Z,73.20
2022-12-08T09:59:35.636Z,73.40
2022-12-08T10:02:08.044Z,74.30
2022-12-08T10:04:39.444Z,74.40
2022-12-08T10:07:30.650Z,74.90
2022-12-08T10:10:13.784Z,75.60
2022-12-08T10:13:08.233Z,75.70
2022-12-08T10:15:49.716Z,75.90
2022-12-08T10:18:29.810Z,76.00
2022-12-08T10:21:12.070Z,76.10
2022-12-08T10:23:41.803Z,76.30
2022-12-08T10:26:15.173Z,76.40
2022-12-08T10:28:45.029Z,76.70
2022-12-08T10:31:24.931Z,77.00
2022-12-08T10:33:59.507Z,77.10
2022-12-08T10:36:46.054Z,77.40
2022-12-08T10:39:34.787Z,77.70
2022-12-08T10:42:23.410Z,78.40
2022-12-08T10:44:59.022Z,77.80
2022-12-08T10:47:28.462Z,77.80
2022-12-08T10:50:21.901Z,78.10
2022-12-08T10:52:58.519Z,78.00
2022-12-08T10:55:26.081Z,78.00
2022-12-08T10:57:53.238Z,78.10
2022-12-08T11:00:24.137Z,78.00
2022-12-08T11:03:03.289Z,78.10
2022-12-08T11:05:35.630Z,78.20
2022-12-08T11:08:04.738Z,78.40
2022-12-08T11:10:38.290Z,78.50
2022-12-08T11:13:12.574Z,78.30
2022-12-08T11:15:41.394Z,78.50
2022-12-08T11:18:39.030Z,78.80
2022-12-08T11:21:18.271Z,78.80
2022-12-08T11:23:50.700Z,78.70
2022-12-08T11:26:33.579Z,78.70
2022-12-08T11:29:00.906Z,78.90
2022-12-08T11:31:35.172Z,78.90
2022-12-08T11:34:03.817Z,79.00
2022-12-08T11:36:33.407Z,78.90
2022-12-08T11:39:03.217Z,78.80
2022-12-08T11:41:45.811Z,78.60
2022-12-08T11:44:39.443Z,78.50
2022-12-08T11:47:28.216Z,78.70
2022-12-08T11:50:06.430Z,78.70
2022-12-08T11:52:45.114Z,78.90
2022-12-08T11:55:56.794Z,79.20
2022-12-08T11:58:36.468Z,79.00
2022-12-08T12:01:03.673Z,78.80
2022-12-08T12:03:41.733Z,78.90
2022-12-08T12:09:16.675Z,78.90
2022-12-08T12:12:14.094Z,80.20
2022-12-08T12:14:59.526Z,80.20
2022-12-08T12:17:41.775Z,80.30
2022-12-08T12:20:37.090Z,80.30
2022-12-08T12:23:16.796Z,80.20
2022-12-08T12:26:01.339Z,80.00
2022-12-08T12:28:35.919Z,80.10
2022-12-08T12:31:07.862Z,80.20
2022-12-08T12:33:36.023Z,80.20
2022-12-08T12:36:06.744Z,80.30
2022-12-08T12:39:01.175Z,80.10
2022-12-08T12:41:37.835Z,79.80
2022-12-08T12:44:14.004Z,79.80
2022-12-08T12:46:48.360Z,79.80
2022-12-08T12:49:40.551Z,79.80
2022-12-08T12:52:16.675Z,79.60
2022-12-08T12:55:04.547Z,79.70
2022-12-08T12:57:52.411Z,79.70
2022-12-08T13:00:23.168Z,79.50
2022-12-08T13:02:51.926Z,79.50
2022-12-08T13:05:26.749Z,79.30
2022-12-08T13:08:07.812Z,79.30
2022-12-08T13:10:38.358Z,79.40
2022-12-08T13:13:16.194Z,79.10
2022-12-08T13:15:46.263Z,79.00
2022-12-08T13:18:27.118Z,79.00
2022-12-08T13:21:16.377Z,78.60
2022-12-08T13:24:12.822Z,78.50
2022-12-08T13:26:48.180Z,78.50
2022-12-08T13:29:23.825Z,78.50
2022-12-08T13:31:58.513Z,78.40
2022-12-08T13:34:39.138Z,78.50
2022-12-08T13:37:12.221Z,78.60
2022-12-08T13:39:39.281Z,78.60
2022-12-08T13:42:12.267Z,78.70
2022-12-08T13:45:19.692Z,78.40
2022-12-08T13:48:23.866Z,78.30
2022-12-08T13:55:01.396Z,78.30
2022-12-08T13:57:05.615Z,78.50
2022-12-08T13:59:44.505Z,78.40
2022-12-08T14:02:20.443Z,78.50
2022-12-08T14:05:17.516Z,78.50
2022-12-08T14:07:34.954Z,78.50
2022-12-08T14:10:06.754Z,78.30
2022-12-08T14:12:33.914Z,78.10
2022-12-08T14:15:06.415Z,78.10
2022-12-08T14:17:33.843Z,78.10
2022-12-08T14:20:03.499Z,78.00
2022-12-08T14:22:35.950Z,78.00
2022-12-08T14:25:04.811Z,78.20
2022-12-08T14:27:34.983Z,77.90
2022-12-08T14:30:07.683Z,77.90
2022-12-08T14:32:38.859Z,77.60
2022-12-08T14:35:08.807Z,78.10
2022-12-08T14:37:42.660Z,77.70
2022-12-08T14:40:23.536Z,77.60
2022-12-08T14:43:07.055Z,77.60
2022-12-08T14:45:43.229Z,77.60
2022-12-08T14:48:36.164Z,77.60
2022-12-08T14:51:15.215Z,77.50
2022-12-08T14:54:07.324Z,77.80
2022-12-08T14:56:54.156Z,77.80
2022-12-08T14:59:27.169Z,77.90
2022-12-08T15:02:12.020Z,78.00
2022-12-08T15:04:42.539Z,78.10
2022-12-08T15:07:17.196Z,78.00
2022-12-08T15:09:47.099Z,78.00
2022-12-08T15:12:14.093Z,78.40
2022-12-08T15:14:53.489Z,78.30
2022-12-08T15:17:50.123Z,78.30
2022-12-08T15:20:40.726Z,78.10
2022-12-08T15:23:26.737Z,78.10
2022-12-08T15:25:55.536Z,78.00
2022-12-08T15:28:29.418Z,78.10
2022-12-08T15:30:58.069Z,78.60
2022-12-08T15:33:25.635Z,77.80
2022-12-08T15:35:53.052Z,77.50
2022-12-08T15:38:30.904Z,77.50
2022-12-08T15:41:01.204Z,77.40
2022-12-08T15:43:30.391Z,77.40
2022-12-08T15:46:00.133Z,77.30
2022-12-08T15:48:29.734Z,77.10
2022-12-08T15:50:57.072Z,76.50
2022-12-08T15:53:24.134Z,77.10
2022-12-08T15:56:26.560Z,76.20
2022-12-08T15:58:53.458Z,76.00
2022-12-08T16:01:21.817Z,75.80
2022-12-08T16:09:32.288Z,75.80
2022-12-08T16:12:18.209Z,75.80
2022-12-08T16:17:33.825Z,75.90
2022-12-08T16:20:01.612Z,76.10
2022-12-08T16:25:20.585Z,76.50
2022-12-08T16:30:43.167Z,76.40
2022-12-08T16:33:11.878Z,76.60
2022-12-08T16:35:39.077Z,76.70
2022-12-08T16:38:06.205Z,76.00
2022-12-08T16:40:53.622Z,76.00
2022-12-08T16:43:20.701Z,76.20
2022-12-08T16:45:47.830Z,76.00
2022-12-08T16:48:15.458Z,75.90
2022-12-08T16:50:44.829Z,75.90
2022-12-08T16:53:12.781Z,75.80
2022-12-08T16:55:40.255Z,76.00
2022-12-08T16:58:07.410Z,75.90
2022-12-08T17:00:38.042Z,75.80
2022-12-08T17:03:07.956Z,75.30
2022-12-08T17:05:35.299Z,75.30
2022-12-08T17:08:02.431Z,75.30
2022-12-08T17:10:31.685Z,75.10
2022-12-08T17:12:58.736Z,75.20
2022-12-08T17:15:26.291Z,74.70
2022-12-08T17:17:53.916Z,74.70
2022-12-08T17:20:23.780Z,74.60
2022-12-08T17:22:53.135Z,74.30
2022-12-08T17:25:20.202Z,74.10
2022-12-08T17:27:47.299Z,74.20
2022-12-08T17:30:15.756Z,73.80
2022-12-08T17:32:43.184Z,74.40
2022-12-08T17:35:10.839Z,74.60
2022-12-08T17:37:37.898Z,74.60
2022-12-08T17:40:06.040Z,74.60
2022-12-08T17:42:33.269Z,74.70
2022-12-08T17:45:00.331Z,74.40
2022-12-08T17:47:27.383Z,74.60
2022-12-08T17:49:55.904Z,74.80
2022-12-08T17:52:23.069Z,75.00
2022-12-08T17:54:50.207Z,75.30
2022-12-08T17:57:17.327Z,75.20
2022-12-08T17:59:44.456Z,75.40
2022-12-08T18:02:14.991Z,75.60
2022-12-08T18:04:42.123Z,75.80
2022-12-08T18:07:09.179Z,76.10
2022-12-08T18:09:36.291Z,76.20
2022-12-08T18:12:03.467Z,75.70
2022-12-08T18:14:30.572Z,75.80
2022-12-08T18:16:57.758Z,76.00
2022-12-08T18:19:25.008Z,76.30
2022-12-08T18:21:52.062Z,76.40
2022-12-08T18:24:21.992Z,76.50
2022-12-08T18:26:51.895Z,76.50
2022-12-08T18:29:19.992Z,76.60
2022-12-08T18:31:47.516Z,76.50
2022-12-08T18:34:14.694Z,76.50
2022-12-08T18:36:41.925Z,76.70
2022-12-08T18:39:21.794Z,76.80
2022-12-08T18:41:48.903Z,77.20
2022-12-08T18:44:16.028Z,77.40
2022-12-08T18:46:43.101Z,77.60
2022-12-08T18:49:15.837Z,77.60
2022-12-08T18:51:43.670Z,77.60
2022-12-08T18:54:12.147Z,77.50
2022-12-08T18:56:39.739Z,77.60
2022-12-08T18:59:10.731Z,77.80
2022-12-08T19:01:39.294Z,77.80
2022-12-08T19:06:57.011Z,77.40
2022-12-08T19:09:26.485Z,77.20
2022-12-08T19:11:53.720Z,77.10
2022-12-08T19:14:27.713Z,77.10
2022-12-08T19:16:57.284Z,77.00
2022-12-08T19:19:25.138Z,76.60
2022-12-08T19:21:52.334Z,76.20
2022-12-08T19:24:19.795Z,76.10
2022-12-08T19:26:46.929Z,76.20
2022-12-08T19:29:14.145Z,76.30
2022-12-08T19:31:41.684Z,76.30
2022-12-08T19:34:10.106Z,76.10
2022-12-08T19:36:42.120Z,76.00
2022-12-08T19:39:33.585Z,76.10
2022-12-08T19:42:19.546Z,76.50
2022-12-08T19:44:52.417Z,77.10
2022-12-08T19:47:28.402Z,77.40
2022-12-08T19:50:15.844Z,77.80
2022-12-08T19:52:44.088Z,78.00
2022-12-08T19:55:12.116Z,77.70
2022-12-08T19:57:39.267Z,78.20
2022-12-08T20:00:08.790Z,77.70
2022-12-08T20:02:36.790Z,77.60
2022-12-08T20:05:05.410Z,77.60
2022-12-08T20:07:32.582Z,77.20
2022-12-08T20:09:59.840Z,77.00
2022-12-08T20:12:26.883Z,76.60
2022-12-08T20:14:53.930Z,76.50
2022-12-08T20:17:20.967Z,76.40
2022-12-08T20:19:48.105Z,76.40
2022-12-08T20:22:15.176Z,76.30
2022-12-08T20:24:42.283Z,77.30
2022-12-08T20:27:09.449Z,76.90
2022-12-08T20:29:36.508Z,76.60
2022-12-08T20:32:03.819Z,76.30
2022-12-08T20:34:32.598Z,75.90
2022-12-08T20:36:59.736Z,75.70
2022-12-08T20:39:26.883Z,75.40
2022-12-08T20:41:55.269Z,75.10
2022-12-08T20:44:22.393Z,74.80
2022-12-08T20:46:49.929Z,74.60
2022-12-08T20:49:17.078Z,74.40
2022-12-08T20:51:44.503Z,74.10
2022-12-08T20:54:12.283Z,73.80
2022-12-08T20:56:44.801Z,73.70
2022-12-08T20:59:18.265Z,73.70
2022-12-08T21:01:45.598Z,73.70
2022-12-08T21:04:13.360Z,73.90
2022-12-08T21:06:40.641Z,73.70
2022-12-08T21:09:08.664Z,73.70
2022-12-08T21:11:35.943Z,73.60
2022-12-08T21:14:03.574Z,73.90
2022-12-08T21:16:31.083Z,73.70
2022-12-08T21:18:58.231Z,74.00
2022-12-08T21:21:25.420Z,73.80
2022-12-08T21:23:52.643Z,73.70
2022-12-08T21:26:21.685Z,73.60
2022-12-08T21:28:48.885Z,73.40
2022-12-08T21:31:18.414Z,73.40
2022-12-08T21:33:45.770Z,73.40
2022-12-08T21:36:16.198Z,73.70
2022-12-08T21:38:44.350Z,73.90
2022-12-08T21:41:15.158Z,74.20
2022-12-08T21:43:43.210Z,74.10
2022-12-08T21:46:17.332Z,74.00
2022-12-08T21:48:44.632Z,73.80
2022-12-08T21:51:11.926Z,73.80
2022-12-08T21:53:39.030Z,73.90
2022-12-08T21:56:09.819Z,74.10
2022-12-08T21:58:36.995Z,73.70
2022-12-08T22:01:10.988Z,73.60
2022-12-08T22:03:39.849Z,73.50
2022-12-08T22:06:12.717Z,73.30
2022-12-08T22:08:40.798Z,73.30
2022-12-08T22:11:08.751Z,73.10
2022-12-08T22:13:37.695Z,73.00
2022-12-08T22:16:08.257Z,72.90
2022-12-08T22:18:36.133Z,72.60
2022-12-08T22:21:23.519Z,72.50
2022-12-08T22:23:50.600Z,72.40
2022-12-08T22:26:17.806Z,72.30
2022-12-08T22:28:44.933Z,72.20
2022-12-08T22:31:17.394Z,72.00
2022-12-08T22:33:44.533Z,72.50
2022-12-08T22:36:20.720Z,71.90
2022-12-08T22:38:47.921Z,72.00
2022-12-08T22:41:15.752Z,72.20
2022-12-08T22:43:43.493Z,72.20
2022-12-08T22:46:16.184Z,71.90
2022-12-08T22:48:43.442Z,72.00
2022-12-08T22:51:10.693Z,71.80
2022-12-08T22:53:38.148Z,71.90
2022-12-08T22:56:07.120Z,71.70
2022-12-08T22:58:34.516Z,71.60
2022-12-08T23:01:02.118Z,70.90
2022-12-08T23:03:29.588Z,71.30
2022-12-08T23:05:57.367Z,71.20
2022-12-08T23:08:25.003Z,71.70
2022-12-08T23:10:53.825Z,71.50
2022-12-08T23:13:21.906Z,71.40
2022-12-08T23:15:49.076Z,71.70
2022-12-08T23:18:19.118Z,71.80
2022-12-08T23:20:47.152Z,71.70
2022-12-08T23:23:14.338Z,72.60
2022-12-08T23:25:42.512Z,72.10
2022-12-08T23:28:10.448Z,72.40
2022-12-08T23:30:40.332Z,72.20
2022-12-08T23:33:07.452Z,72.00
2022-12-08T23:35:34.533Z,72.00
2022-12-08T23:38:01.671Z,72.70
2022-12-08T23:40:28.854Z,72.60
2022-12-08T23:42:56.024Z,72.60
2022-12-08T23:45:23.076Z,72.90
2022-12-08T23:47:50.196Z,72.90
2022-12-08T23:50:17.644Z,73.10
2022-12-08T23:52:45.483Z,73.30
2022-12-08T23:55:12.656Z,73.40
2022-12-08T23:57:40.034Z,73.80
